Time;durP1;ratioP1;P1;durP2;ratioP2;P2;SDS_P1;SDS_P2;PMS_P1;PMS_P2;Temp;Humidity;BMP_temperature;BMP_pressure;BME280_temperature;BME280_humidity;BME280_pressure;Samples;Min_cycle;Max_cycle;Signal;HPM_P1;HPM_P2
2023/09/17 00:00:29;;;;;;;39.28;7.03;;;;;;;22.89;58.06;99376.97;7308091;19;131512;-38
2023/09/17 00:02:55;;;;;;;82.63;9.38;;;;;;;22.99;57.78;99392.63;7311216;19;129804;-38
2023/09/17 00:05:21;;;;;;;64.95;8.52;;;;;;;22.99;58.40;99400.50;7311331;19;130357;-37
2023/09/17 00:07:46;;;;;;;70.67;8.50;;;;;;;22.98;57.89;99393.59;7308748;19;129508;-43
2023/09/17 00:10:12;;;;;;;66.17;8.37;;;;;;;22.98;58.05;99398.81;7306796;19;129538;-37
2023/09/17 00:12:37;;;;;;;101.60;10.00;;;;;;;22.98;58.56;99398.81;7308212;19;129213;-35
2023/09/17 00:15:03;;;;;;;42.30;6.87;;;;;;;22.86;58.11;99376.44;7310874;19;130084;-38
2023/09/17 00:17:28;;;;;;;36.63;6.50;;;;;;;22.99;58.34;99392.63;7310458;19;130638;-38
2023/09/17 00:19:53;;;;;;;42.60;7.00;;;;;;;22.98;58.34;99388.34;7305950;19;129639;-38
2023/09/17 00:22:19;;;;;;;98.15;9.45;;;;;;;22.96;57.86;99385.88;7310924;19;129041;-37
2023/09/17 00:24:44;;;;;;;25.17;6.57;;;;;;;22.97;58.16;99384.88;7308067;19;130206;-37
2023/09/17 00:27:09;;;;;;;71.43;8.23;;;;;;;22.94;58.10;99389.63;7310004;19;130155;-36
2023/09/17 00:29:35;;;;;;;66.43;8.18;;;;;;;22.95;58.26;99399.13;7308462;19;130732;-37
2023/09/17 00:32:01;;;;;;;73.60;8.23;;;;;;;22.97;57.54;99397.19;7309159;19;130261;-38
2023/09/17 00:34:26;;;;;;;58.40;8.23;;;;;;;22.97;57.86;99391.94;7310220;19;130784;-38
2023/09/17 00:36:51;;;;;;;28.38;7.53;;;;;;;22.98;58.42;99388.34;7310550;19;134111;-38
2023/09/17 00:39:18;;;;;;;129.88;11.25;;;;;;;22.88;57.55;99371.88;7306968;19;129308;-37
2023/09/17 00:41:43;;;;;;;78.22;9.05;;;;;;;22.97;58.69;99386.72;7308580;19;129267;-37
2023/09/17 00:44:09;;;;;;;60.80;8.27;;;;;;;22.96;57.76;99385.03;7305314;19;129363;-37
2023/09/17 00:46:35;;;;;;;35.47;6.90;;;;;;;22.98;59.20;99383.94;7309054;19;130072;-37
2023/09/17 00:49:01;;;;;;;72.75;8.38;;;;;;;22.97;57.82;99382.25;7307665;19;129808;-37
2023/09/17 00:51:26;;;;;;;24.57;6.07;;;;;;;22.98;58.09;99383.09;7309721;19;128911;-38
2023/09/17 00:53:58;;;;;;;57.03;7.50;;;;;;;22.97;59.63;99382.25;7307772;19;129111;-38
2023/09/17 00:56:25;;;;;;;30.58;6.28;;;;;;;22.98;57.91;99383.09;7307514;19;129169;-37
2023/09/17 00:58:51;;;;;;;79.15;7.88;;;;;;;22.97;58.13;99381.47;7308434;19;130954;-38
2023/09/17 01:01:19;;;;;;;97.75;9.38;;;;;;;22.97;58.27;99376.22;7307905;19;130893;-37
2023/09/17 01:03:45;;;;;;;23.60;5.63;;;;;;;22.96;58.19;99372.75;7308224;19;129081;-37
2023/09/17 01:06:11;;;;;;;42.27;5.93;;;;;;;22.97;58.55;99376.22;7307012;19;130097;-38
2023/09/17 01:08:39;;;;;;;70.72;7.53;;;;;;;22.97;58.06;99382.25;7308638;19;130289;-37
2023/09/17 01:11:05;;;;;;;62.97;6.97;;;;;;;22.95;58.61;99372.91;7306420;19;129192;-36
2023/09/17 01:13:31;;;;;;;37.08;5.78;;;;;;;22.95;58.46;99370.31;7308943;19;129375;-38
2023/09/17 01:15:59;;;;;;;66.13;7.00;;;;;;;22.95;58.51;99372.91;7306404;19;130154;-38
2023/09/17 01:18:27;;;;;;;117.40;9.77;;;;;;;22.95;57.93;99372.91;7306700;19;130427;-37
2023/09/17 01:21:14;;;;;;;57.95;6.88;;;;;;;22.97;57.77;99376.22;7305455;19;130662;-37
2023/09/17 01:24:26;;;;;;;71.75;7.47;;;;;;;22.98;59.38;99372.59;7310750;19;128905;-38
2023/09/17 01:27:02;;;;;;;60.13;6.68;;;;;;;22.96;58.96;99364.06;7314365;19;130158;-36
2023/09/17 01:29:34;;;;;;;109.00;9.20;;;;;;;22.96;58.98;99369.31;7311442;19;130391;-37
2023/09/17 01:31:59;;;;;;;36.70;5.53;;;;;;;22.96;58.62;99370.16;7314721;19;128850;-38
2023/09/17 01:34:25;;;;;;;89.43;7.97;;;;;;;22.94;58.46;99371.28;7313964;19;129003;-38
2023/09/17 01:36:57;;;;;;;22.85;5.03;;;;;;;22.95;59.09;99372.91;7314716;19;131160;-36
2023/09/17 01:39:27;;;;;;;78.78;7.20;;;;;;;22.94;59.28;99379.16;7310976;19;130431;-37
2023/09/17 01:41:54;;;;;;;104.20;8.02;;;;;;;22.91;58.19;99374.19;7314334;19;129518;-38
2023/09/17 01:44:21;;;;;;;69.55;6.85;;;;;;;22.95;59.01;99373.75;7312362;19;129614;-38
2023/09/17 01:46:47;;;;;;;36.25;5.65;;;;;;;22.82;58.35;99352.38;7314090;19;132260;-37
2023/09/17 01:49:13;;;;;;;78.72;7.10;;;;;;;22.94;58.93;99377.34;7311837;19;130855;-37
2023/09/17 01:51:39;;;;;;;51.73;6.10;;;;;;;22.94;58.52;99379.16;7314001;19;128826;-37
2023/09/17 01:54:05;;;;;;;66.05;7.10;;;;;;;22.95;58.37;99383.41;7314964;19;130915;-38
2023/09/17 01:56:34;;;;;;;49.80;6.23;;;;;;;22.94;58.92;99381.78;7313512;19;130271;-36
2023/09/17 01:59:00;;;;;;;60.50;6.57;;;;;;;22.94;58.10;99377.34;7313476;19;130469;-37
2023/09/17 02:01:25;;;;;;;113.67;8.40;;;;;;;22.93;58.71;99372.25;7313261;19;128934;-37
2023/09/17 02:03:51;;;;;;;38.80;5.73;;;;;;;22.95;59.50;99376.38;7314859;19;129280;-36
2023/09/17 02:06:16;;;;;;;80.77;7.50;;;;;;;22.96;58.07;99383.25;7311164;19;129077;-37
2023/09/17 02:08:41;;;;;;;34.20;4.53;;;;;;;22.96;58.68;99383.25;7309314;19;129118;-37
2023/09/17 02:11:07;;;;;;;76.43;6.77;;;;;;;22.95;58.63;99384.25;7311107;19;131301;-38
2023/09/17 02:13:32;;;;;;;35.55;4.90;;;;;;;22.93;58.38;99378.31;7314094;19;129209;-37
2023/09/17 02:15:58;;;;;;;68.47;6.97;;;;;;;22.95;58.74;99380.78;7309669;19;130928;-38
2023/09/17 02:18:23;;;;;;;102.60;7.80;;;;;;;22.95;58.98;99378.16;7308787;19;130484;-38
2023/09/17 02:20:48;;;;;;;74.15;7.20;;;;;;;22.95;58.84;99373.75;7311884;19;129432;-38
2023/09/17 02:23:14;;;;;;;34.57;5.00;;;;;;;22.96;58.01;99375.38;7312903;19;129131;-37
2023/09/17 02:25:39;;;;;;;38.67;5.30;;;;;;;22.95;58.58;99372.91;7311387;19;129251;-38
2023/09/17 02:28:04;;;;;;;112.47;8.50;;;;;;;22.93;59.09;99372.25;7313499;19;129183;-38
2023/09/17 02:30:30;;;;;;;72.27;6.50;;;;;;;22.95;58.59;99370.31;7311149;19;129080;-38
2023/09/17 02:32:56;;;;;;;32.60;4.77;;;;;;;22.94;58.68;99371.28;7312216;19;129039;-37
2023/09/17 02:35:21;;;;;;;61.87;6.10;;;;;;;22.94;59.16;99372.09;7309459;19;131688;-37
2023/09/17 02:37:46;;;;;;;84.57;6.50;;;;;;;22.95;58.67;99370.31;7311457;19;129074;-37
2023/09/17 02:40:12;;;;;;;39.40;5.10;;;;;;;22.95;58.63;99372.91;7311660;19;129541;-37
2023/09/17 02:42:37;;;;;;;33.07;5.07;;;;;;;22.93;58.62;99375.69;7312534;19;129083;-37
2023/09/17 02:45:04;;;;;;;48.83;5.23;;;;;;;22.94;59.10;99376.53;7310086;19;131565;-38
2023/09/17 02:47:31;;;;;;;90.53;7.22;;;;;;;22.93;57.64;99380.09;7310950;19;130686;-37
2023/09/17 02:49:56;;;;;;;57.03;5.30;;;;;;;22.82;58.87;99375.13;7312039;19;131000;-38
2023/09/17 02:52:21;;;;;;;34.75;5.05;;;;;;;22.93;58.99;99382.72;7312409;19;129959;-38
2023/09/17 02:54:47;;;;;;;81.13;6.77;;;;;;;22.92;58.73;99374.03;7310480;19;130061;-37
2023/09/17 02:57:12;;;;;;;108.82;7.70;;;;;;;22.93;58.92;99391.44;7311524;19;130404;-36
2023/09/17 02:59:37;;;;;;;20.10;3.80;;;;;;;22.92;58.14;99388.97;7309237;19;129026;-38
2023/09/17 03:02:03;;;;;;;42.15;4.95;;;;;;;22.92;57.73;99391.59;7311866;19;128990;-38
2023/09/17 03:04:29;;;;;;;109.47;8.37;;;;;;;22.92;58.06;99394.22;7310032;19;130261;-37
2023/09/17 03:06:55;;;;;;;58.17;5.90;;;;;;;22.94;58.77;99389.63;7312486;19;130297;-38
2023/09/17 03:09:20;;;;;;;103.83;7.33;;;;;;;22.83;58.63;99374.13;7308000;19;129678;-38
2023/09/17 03:11:45;;;;;;;33.13;4.53;;;;;;;22.91;58.63;99392.53;7311795;19;129538;-38
2023/09/17 03:14:11;;;;;;;112.37;7.87;;;;;;;22.85;58.52;99372.19;7311539;19;130168;-37
2023/09/17 03:16:36;;;;;;;63.13;5.97;;;;;;;22.92;58.56;99394.22;7311926;19;129715;-38
2023/09/17 03:19:01;;;;;;;51.47;4.97;;;;;;;22.91;58.61;99388.13;7310144;19;131109;-37
2023/09/17 03:21:27;;;;;;;66.93;5.90;;;;;;;22.93;58.72;99390.59;7309452;19;130253;-36
2023/09/17 03:23:52;;;;;;;90.80;6.50;;;;;;;22.85;58.04;99377.44;7311286;19;128962;-38
2023/09/17 03:26:17;;;;;;;36.13;4.28;;;;;;;22.91;58.57;99387.28;7310964;19;129548;-38
2023/09/17 03:28:43;;;;;;;30.70;4.27;;;;;;;22.89;58.92;99389.28;7310565;19;129157;-37
2023/09/17 03:31:08;;;;;;;25.57;4.03;;;;;;;22.92;58.73;99394.22;7309106;19;129460;-38
2023/09/17 03:33:33;;;;;;;129.90;8.37;;;;;;;22.92;58.29;99399.44;7311233;19;130068;-38
2023/09/17 03:36:00;;;;;;;35.80;4.53;;;;;;;22.93;58.36;99401.09;7312599;19;130963;-37
2023/09/17 03:38:26;;;;;;;62.58;5.80;;;;;;;22.83;59.02;99384.63;7311960;19;128985;-37
2023/09/17 03:40:51;;;;;;;55.37;5.23;;;;;;;22.91;57.94;99397.78;7309280;19;129555;-38
2023/09/17 03:43:16;;;;;;;77.13;5.87;;;;;;;22.91;58.74;99406.47;7310217;19;130403;-37
2023/09/17 03:45:42;;;;;;;45.07;4.97;;;;;;;22.92;58.81;99404.69;7305795;19;129141;-37
2023/09/17 03:48:07;;;;;;;66.60;5.73;;;;;;;22.91;58.43;99396.00;7310757;19;131077;-37
2023/09/17 03:50:38;;;;;;;121.50;8.73;;;;;;;22.91;58.28;99403.03;7308115;19;129559;-37
2023/09/17 03:53:05;;;;;;;77.70;5.97;;;;;;;22.92;58.35;99399.44;7311176;19;131059;-37
2023/09/17 03:55:33;;;;;;;81.38;6.57;;;;;;;22.90;58.38;99404.84;7309237;19;130683;-37
2023/09/17 03:57:59;;;;;;;69.80;5.88;;;;;;;22.91;58.80;99397.78;7308771;19;129454;-37
2023/09/17 04:00:24;;;;;;;70.57;5.87;;;;;;;22.91;58.63;99397.78;7306526;19;128896;-36
2023/09/17 04:02:52;;;;;;;85.70;6.43;;;;;;;22.91;58.54;99403.03;7310232;19;129944;-38
2023/09/17 04:05:17;;;;;;;67.65;5.93;;;;;;;22.90;58.68;99404.03;7306663;19;131221;-37
2023/09/17 04:07:45;;;;;;;35.57;4.17;;;;;;;22.79;58.59;99384.09;7308395;19;129383;-38
2023/09/17 04:10:12;;;;;;;66.65;5.28;;;;;;;22.81;58.65;99389.19;7307562;19;129612;-38
2023/09/17 04:12:39;;;;;;;72.40;5.72;;;;;;;22.90;59.07;99401.41;7309512;19;129177;-38
2023/09/17 04:15:13;;;;;;;42.00;4.07;;;;;;;22.85;59.04;99387.91;7311415;19;130756;-38
2023/09/17 04:17:41;;;;;;;85.55;6.03;;;;;;;22.89;58.24;99399.75;7307132;19;129010;-38
2023/09/17 04:20:13;;;;;;;15.52;3.60;;;;;;;22.89;58.32;99402.38;7306789;19;130436;-37
2023/09/17 04:22:41;;;;;;;78.78;5.70;;;;;;;22.89;58.32;99400.56;7310163;19;130376;-37
2023/09/17 04:25:08;;;;;;;60.28;5.10;;;;;;;22.88;58.36;99408.59;7309314;19;131740;-38
2023/09/17 04:27:34;;;;;;;89.55;6.40;;;;;;;22.89;58.49;99402.38;7310716;19;129162;-37
2023/09/17 04:29:59;;;;;;;52.53;4.87;;;;;;;22.88;58.25;99408.59;7306784;19;128985;-37
2023/09/17 04:32:25;;;;;;;57.83;5.40;;;;;;;22.78;58.43;99392.13;7310575;19;129395;-37
2023/09/17 04:34:50;;;;;;;56.10;4.73;;;;;;;22.89;58.87;99415.50;7309748;19;129357;-38
2023/09/17 04:37:19;;;;;;;35.90;3.97;;;;;;;22.89;58.32;99415.50;7310168;19;130815;-38
2023/09/17 04:39:46;;;;;;;65.20;5.30;;;;;;;22.77;58.29;99401.81;7306010;19;129249;-37
2023/09/17 04:42:12;;;;;;;67.97;5.57;;;;;;;22.89;58.80;99412.88;7308874;19;130118;-37
2023/09/17 04:44:37;;;;;;;93.27;6.43;;;;;;;22.88;58.09;99419.06;7307870;19;130301;-38
2023/09/17 04:47:03;;;;;;;20.90;3.30;;;;;;;22.87;58.53;99406.94;7309471;19;128966;-38
2023/09/17 04:49:30;;;;;;;64.15;5.45;;;;;;;22.89;58.50;99420.72;7307568;19;130040;-37
2023/09/17 04:51:55;;;;;;;88.70;6.38;;;;;;;22.88;58.55;99425.16;7307868;19;130095;-37
2023/09/17 04:54:20;;;;;;;49.97;4.50;;;;;;;22.88;58.62;99427.75;7309749;19;129155;-38
2023/09/17 04:56:46;;;;;;;34.53;4.33;;;;;;;22.86;58.69;99423.63;7307872;19;129673;-37
2023/09/17 04:59:11;;;;;;;20.02;3.22;;;;;;;22.87;58.84;99423.47;7312048;19;130415;-37
2023/09/17 05:01:36;;;;;;;109.50;7.10;;;;;;;22.86;58.53;99426.25;7314664;19;132078;-38
2023/09/17 05:04:02;;;;;;;74.87;5.53;;;;;;;22.88;58.34;99424.31;7313255;19;129979;-37
2023/09/17 05:06:27;;;;;;;68.80;5.35;;;;;;;22.87;58.62;99433.16;7314182;19;129096;-37
2023/09/17 05:08:52;;;;;;;37.87;4.10;;;;;;;22.87;58.69;99441.03;7311941;19;130283;-37
2023/09/17 05:11:18;;;;;;;100.90;7.10;;;;;;;22.85;58.67;99424.63;7315672;19;129273;-37
2023/09/17 05:13:43;;;;;;;51.17;4.50;;;;;;;22.87;58.58;99441.81;7314376;19;129204;-36
2023/09/17 05:16:09;;;;;;;10.47;2.73;;;;;;;22.87;58.43;99443.66;7313745;19;129787;-38
2023/09/17 05:18:34;;;;;;;98.10;7.30;;;;;;;22.88;58.98;99440.03;7313375;19;129065;-37
2023/09/17 05:20:59;;;;;;;56.58;4.65;;;;;;;22.87;58.74;99448.91;7313786;19;130490;-37
2023/09/17 05:23:25;;;;;;;48.17;4.73;;;;;;;22.87;58.04;99454.13;7314126;19;129661;-38
2023/09/17 05:25:50;;;;;;;47.60;4.63;;;;;;;22.86;58.08;99453.31;7311132;19;130184;-38
2023/09/17 05:28:16;;;;;;;118.93;7.97;;;;;;;22.87;57.92;99464.63;7313080;19;129083;-37
2023/09/17 05:30:42;;;;;;;88.97;6.20;;;;;;;22.85;58.48;99462.16;7311693;19;129168;-37
2023/09/17 05:33:07;;;;;;;72.30;5.57;;;;;;;22.86;58.23;99470.81;7313724;19;129290;-37
2023/09/17 05:35:34;;;;;;;57.27;4.97;;;;;;;22.86;57.62;99476.06;7311954;19;128999;-37
2023/09/17 05:38:00;;;;;;;102.38;6.78;;;;;;;22.85;58.36;99477.03;7312226;19;129677;-37
2023/09/17 05:40:26;;;;;;;51.28;4.75;;;;;;;22.85;58.86;99483.13;7313659;19;130166;-37
2023/09/17 05:42:51;;;;;;;51.40;4.63;;;;;;;22.75;57.27;99460.56;7315262;19;130380;-37
2023/09/17 05:45:17;;;;;;;37.60;4.20;;;;;;;22.81;58.53;99476.53;7312962;19;129137;-37
2023/09/17 05:47:43;;;;;;;128.65;7.72;;;;;;;22.84;58.05;99485.91;7313935;19;131018;-37
2023/09/17 05:50:10;;;;;;;31.00;3.90;;;;;;;22.83;58.28;99481.59;7313592;19;129874;-37
2023/09/17 05:52:36;;;;;;;73.00;5.60;;;;;;;22.85;57.94;99485.75;7314294;19;130450;-36
2023/09/17 05:55:04;;;;;;;144.73;9.50;;;;;;;22.84;58.91;99480.66;7313242;19;129879;-37
2023/09/17 05:57:30;;;;;;;168.93;10.07;;;;;;;22.84;58.34;99488.53;7306668;19;131398;-37
2023/09/17 05:59:55;;;;;;;43.33;4.20;;;;;;;22.79;57.87;99478.47;7310354;19;130347;-37
2023/09/17 06:02:20;;;;;;;43.43;4.23;;;;;;;22.72;57.75;99471.34;7314574;19;129764;-37
2023/09/17 06:04:51;;;;;;;64.13;5.27;;;;;;;22.83;58.15;99484.22;7312315;19;130036;-37
2023/09/17 06:07:16;;;;;;;93.00;6.07;;;;;;;22.83;58.44;99485.06;7312280;19;131421;-37
2023/09/17 06:09:41;;;;;;;59.73;5.10;;;;;;;22.82;57.33;99479.97;7310734;19;130069;-38
2023/09/17 06:12:07;;;;;;;60.83;5.30;;;;;;;22.80;58.00;99474.88;7311009;19;129509;-38
2023/09/17 06:14:33;;;;;;;84.73;5.80;;;;;;;22.68;57.21;99454.28;7312417;19;130013;-37
2023/09/17 06:16:58;;;;;;;63.63;4.77;;;;;;;22.83;57.78;99479.00;7311852;19;128992;-38
2023/09/17 06:19:23;;;;;;;40.57;3.67;;;;;;;22.82;57.95;99482.59;7312317;19;130144;-37
2023/09/17 06:21:49;;;;;;;47.43;4.03;;;;;;;22.83;57.20;99481.59;7311381;19;129521;-37
2023/09/17 06:24:15;;;;;;;23.17;3.10;;;;;;;22.68;57.74;99455.09;7310283;19;129278;-38
2023/09/17 06:26:40;;;;;;;119.13;7.57;;;;;;;22.82;58.23;99491.28;7310532;19;131916;-38
2023/09/17 06:29:05;;;;;;;38.63;4.18;;;;;;;22.83;57.55;99494.72;7310280;19;130761;-38
2023/09/17 06:31:31;;;;;;;63.15;5.10;;;;;;;22.83;58.10;99486.84;7312792;19;129629;-38
2023/09/17 06:33:57;;;;;;;60.87;4.80;;;;;;;22.80;58.99;99495.03;7310591;19;130712;-38
2023/09/17 06:36:22;;;;;;;47.77;4.03;;;;;;;22.79;58.08;99488.16;7311324;19;130827;-38
2023/09/17 06:38:48;;;;;;;29.73;3.63;;;;;;;22.76;59.26;99494.50;7308903;19;129561;-37
2023/09/17 06:41:13;;;;;;;46.07;4.37;;;;;;;22.63;58.43;99454.72;7306767;19;131306;-37
2023/09/17 06:43:39;;;;;;;88.03;5.90;;;;;;;22.78;57.98;99491.72;7309729;19;129010;-37
2023/09/17 06:46:05;;;;;;;63.03;4.90;;;;;;;22.62;58.72;99460.13;7308763;19;130238;-38
2023/09/17 06:48:30;;;;;;;38.60;3.80;;;;;;;22.78;59.65;99476.81;7310454;19;131151;-38
2023/09/17 06:50:57;;;;;;;80.82;6.13;;;;;;;22.75;58.35;99471.06;7308085;19;129383;-38
2023/09/17 06:53:23;;;;;;;75.38;5.18;;;;;;;22.78;59.08;99478.63;7312559;19;130412;-37
2023/09/17 06:55:48;;;;;;;108.07;6.93;;;;;;;22.78;58.46;99481.22;7309337;19;130124;-38
2023/09/17 06:58:16;;;;;;;95.97;6.57;;;;;;;22.68;58.82;99470.00;7310948;19;130492;-38
2023/09/17 07:00:45;;;;;;;65.57;5.07;;;;;;;22.77;58.58;99490.09;7309624;19;130652;-38
2023/09/17 07:03:11;;;;;;;65.90;5.13;;;;;;;22.76;58.28;99485.78;7311791;19;129254;-38
2023/09/17 07:05:36;;;;;;;47.73;4.57;;;;;;;22.70;59.31;99473.31;7310609;19;130671;-41
2023/09/17 07:08:02;;;;;;;89.00;6.57;;;;;;;22.79;58.94;99488.16;7308991;19;130436;-38
2023/09/17 07:10:27;;;;;;;35.40;3.33;;;;;;;22.81;59.48;99491.41;7310184;19;130273;-38
2023/09/17 07:12:53;;;;;;;94.20;6.00;;;;;;;22.80;58.84;99484.53;7311867;19;132216;-37
2023/09/17 07:15:20;;;;;;;35.13;3.70;;;;;;;22.80;59.42;99490.63;7313346;19;129916;-38
2023/09/17 07:17:45;;;;;;;62.22;4.63;;;;;;;22.80;58.08;99493.22;7311288;19;131387;-38
2023/09/17 07:20:13;;;;;;;87.13;6.20;;;;;;;22.82;59.14;99490.47;7305056;19;130141;-38
2023/09/17 07:22:40;;;;;;;101.60;6.38;;;;;;;22.70;58.79;99460.19;7310050;19;129242;-38
2023/09/17 07:25:05;;;;;;;63.47;4.95;;;;;;;22.84;57.94;99480.66;7309707;19;129007;-40
2023/09/17 07:27:32;;;;;;;53.90;4.70;;;;;;;22.84;58.89;99493.75;7310578;19;129874;-38
2023/09/17 07:29:58;;;;;;;67.72;4.93;;;;;;;22.85;58.57;99495.41;7308152;19;130070;-38
2023/09/17 07:32:27;;;;;;;84.33;5.67;;;;;;;22.76;58.91;99475.31;7310463;19;129118;-38
2023/09/17 07:34:53;;;;;;;65.10;4.80;;;;;;;22.88;58.58;99487.22;7311465;19;128951;-38
2023/09/17 07:37:20;;;;;;;88.43;6.43;;;;;;;22.87;59.20;99485.59;7310339;19;129234;-38
2023/09/17 07:39:46;;;;;;;68.40;5.45;;;;;;;22.86;58.75;99481.31;7307003;19;131108;-37
2023/09/17 07:42:13;;;;;;;83.68;5.53;;;;;;;22.86;58.08;99481.31;7309626;19;129509;-38
2023/09/17 07:44:38;;;;;;;68.15;5.35;;;;;;;22.85;57.99;99485.75;7309071;19;129071;-37
2023/09/17 07:47:05;;;;;;;65.47;5.07;;;;;;;22.86;58.53;99484.75;7310035;19;129792;-38
2023/09/17 07:49:31;;;;;;;148.02;8.60;;;;;;;22.85;58.82;99484.91;7298729;19;130784;-38
2023/09/17 07:51:57;;;;;;;247.83;13.60;;;;;;;22.69;59.66;99461.19;7280521;19;129347;-38
2023/09/17 07:54:22;;;;;;;155.73;9.40;;;;;;;22.85;59.23;99483.13;7283463;19;130751;-38
2023/09/17 07:56:47;;;;;;;172.27;10.53;;;;;;;22.86;58.64;99482.13;7279281;19;130589;-37
2023/09/17 07:59:13;;;;;;;115.47;7.28;;;;;;;22.87;58.83;99483.78;7286817;19;131385;-37
2023/09/17 08:01:38;;;;;;;210.20;11.53;;;;;;;22.87;58.58;99482.97;7281179;19;129930;-37
2023/09/17 08:04:04;;;;;;;214.90;12.07;;;;;;;22.90;58.38;99477.41;7279625;19;130316;-37
2023/09/17 08:06:29;;;;;;;175.57;9.73;;;;;;;22.94;58.40;99484.03;7280756;19;131296;-37
2023/09/17 08:08:55;;;;;;;224.17;12.67;;;;;;;22.78;59.31;99461.09;7279660;19;130021;-37
2023/09/17 08:11:21;;;;;;;205.35;10.85;;;;;;;22.91;58.61;99476.44;7282091;19;130403;-37
2023/09/17 08:13:48;;;;;;;189.27;10.65;;;;;;;22.94;58.84;99481.41;7273307;19;131360;-38
2023/09/17 08:16:13;;;;;;;187.10;10.40;;;;;;;22.97;58.23;99474.03;7278968;19;131344;-35
2023/09/17 08:18:38;;;;;;;194.13;10.90;;;;;;;22.99;58.57;99492.25;7280794;19;130619;-38
2023/09/17 08:21:04;;;;;;;183.10;10.63;;;;;;;22.95;58.49;99483.03;7281413;19;130256;-37
2023/09/17 08:23:30;;;;;;;150.43;8.77;;;;;;;22.98;58.38;99493.22;7281045;19;131055;-37
2023/09/17 08:25:56;;;;;;;156.38;9.05;;;;;;;22.89;59.08;99465.31;7277442;19;130857;-38
2023/09/17 08:28:22;;;;;;;224.67;13.00;;;;;;;23.00;59.42;99486.88;7280619;19;130960;-37
2023/09/17 08:30:48;;;;;;;171.80;9.93;;;;;;;22.98;58.87;99482.72;7272524;19;129774;-37
2023/09/17 08:33:15;;;;;;;155.47;9.17;;;;;;;23.02;59.47;99494.56;7287538;19;131041;-37
2023/09/17 08:35:40;;;;;;;189.93;10.95;;;;;;;23.03;59.06;99497.03;7289430;19;131608;-37
2023/09/17 08:38:05;;;;;;;279.80;15.00;;;;;;;23.05;59.10;99504.75;7288569;19;131499;-35
2023/09/17 08:40:34;;;;;;;186.37;10.30;;;;;;;23.03;59.26;99493.59;7283704;19;131399;-37
2023/09/17 08:43:00;;;;;;;188.35;10.93;;;;;;;23.02;58.93;99492.75;7288975;19;130474;-36
2023/09/17 08:45:28;;;;;;;188.82;10.90;;;;;;;23.01;59.25;99487.66;7286810;19;130248;-37
2023/09/17 08:47:54;;;;;;;197.48;10.98;;;;;;;23.04;58.83;99492.59;7288622;19;130312;-38
2023/09/17 08:50:19;;;;;;;180.23;10.27;;;;;;;23.03;58.83;99488.34;7285970;19;130164;-38
2023/09/17 08:52:52;;;;;;;198.53;11.80;;;;;;;23.00;59.35;99491.28;7287862;19;129264;-38
2023/09/17 08:55:19;;;;;;;162.00;9.73;;;;;;;23.03;59.38;99489.19;7283424;19;131457;-38
2023/09/17 08:58:02;;;;;;;195.68;11.07;;;;;;;23.03;59.20;99491.81;7285246;19;131043;-37
2023/09/17 09:00:32;;;;;;;188.02;10.23;;;;;;;23.06;58.67;99493.28;7284387;19;131133;-36
2023/09/17 09:03:03;;;;;;;229.38;12.65;;;;;;;23.04;59.28;99492.59;7289392;19;130731;-38
2023/09/17 09:05:30;;;;;;;216.90;11.93;;;;;;;23.07;59.08;99481.84;7280506;19;131642;-38
2023/09/17 09:07:56;;;;;;;170.02;10.00;;;;;;;23.07;58.29;99489.69;7286898;19;131604;-37
2023/09/17 09:10:22;;;;;;;164.87;9.53;;;;;;;23.07;58.36;99481.84;7285124;19;130267;-37
2023/09/17 09:12:49;;;;;;;169.97;9.83;;;;;;;23.07;59.56;99487.09;7288986;19;131324;-37
2023/09/17 09:15:14;;;;;;;;;;;;;;;23.03;60.07;99475.22;7291450;19;131053;-38
2023/09/17 09:17:40;;;;;;;152.77;9.07;;;;;;;23.01;58.95;99474.56;7288360;19;130199;-38
2023/09/17 09:20:17;;;;;;;154.10;8.97;;;;;;;23.02;59.47;99479.66;7287157;19;130728;-38
2023/09/17 09:22:43;;;;;;;;;;;;;;;23.07;60.07;99472.16;7288433;19;130323;-38
2023/09/17 09:25:12;;;;;;;163.55;9.52;;;;;;;23.07;58.55;99481.84;7288851;19;131737;-38
2023/09/17 09:27:37;;;;;;;151.00;8.70;;;;;;;23.04;58.50;99477.69;7290324;19;130120;-38
2023/09/17 09:30:11;;;;;;;169.17;9.97;;;;;;;23.06;59.47;99474.94;7286004;19;131310;-37
2023/09/17 09:32:37;;;;;;;194.98;10.63;;;;;;;22.92;58.52;99457.13;7284564;19;132358;-38
2023/09/17 09:35:04;;;;;;;217.02;11.68;;;;;;;23.06;58.52;99475.75;7287452;19;130599;-37
2023/09/17 09:37:30;;;;;;;171.53;10.17;;;;;;;23.04;58.84;99474.25;7290561;19;131031;-36
2023/09/17 09:39:56;;;;;;;160.95;9.60;;;;;;;23.03;58.43;99465.56;7285313;19;130999;-38
2023/09/17 09:42:23;;;;;;;190.17;11.07;;;;;;;23.03;59.24;99464.75;7288121;19;130670;-38
2023/09/17 09:44:50;;;;;;;;;;;;;;;23.07;59.80;99466.09;7287105;19;130705;-38
2023/09/17 09:47:16;;;;;;;154.47;8.97;;;;;;;23.04;58.69;99461.13;7287671;19;129662;-38
2023/09/17 09:49:43;;;;;;;157.10;9.27;;;;;;;23.04;58.83;99466.38;7285789;19;129584;-38
2023/09/17 09:52:11;;;;;;;184.38;10.15;;;;;;;23.01;58.89;99459.66;7289324;19;130500;-38
2023/09/17 09:54:37;;;;;;;202.25;10.98;;;;;;;23.03;58.76;99459.50;7287956;19;130384;-37
2023/09/17 09:57:06;;;;;;;187.93;10.70;;;;;;;23.02;59.44;99458.66;7283738;19;130331;-38
2023/09/17 09:59:33;;;;;;;149.07;8.70;;;;;;;23.04;58.93;99455.88;7282039;19;130237;-38
2023/09/17 10:02:01;;;;;;;180.70;10.38;;;;;;;23.05;58.59;99462.81;7285877;19;130939;-37
2023/09/17 10:04:26;;;;;;;167.68;9.63;;;;;;;23.05;57.82;99462.81;7283679;19;130345;-37
2023/09/17 10:06:52;;;;;;;183.03;10.83;;;;;;;23.06;58.12;99464.44;7286019;19;131195;-38
2023/09/17 10:09:18;;;;;;;183.67;10.53;;;;;;;23.02;58.43;99463.13;7284244;19;130318;-38
2023/09/17 10:11:43;;;;;;;187.83;10.47;;;;;;;23.05;58.39;99462.81;7287244;19;130039;-38
2023/09/17 10:14:09;;;;;;;203.87;11.23;;;;;;;23.05;57.99;99462.81;7286310;19;129766;-38
2023/09/17 10:16:37;;;;;;;146.77;8.70;;;;;;;23.09;58.36;99459.72;7288505;19;132302;-37
2023/09/17 10:19:04;;;;;;;162.40;9.48;;;;;;;23.06;58.06;99461.81;7285995;19;130491;-39
2023/09/17 10:21:37;;;;;;;203.98;11.38;;;;;;;23.06;57.47;99453.94;7282468;19;130586;-39
2023/09/17 10:24:03;;;;;;;262.98;14.13;;;;;;;23.10;57.56;99450.06;7285010;19;132303;-38
2023/09/17 10:26:37;;;;;;;135.67;8.10;;;;;;;23.02;58.41;99452.63;7286201;19;130646;-38
2023/09/17 10:29:04;;;;;;;193.35;10.90;;;;;;;23.04;57.79;99453.25;7286829;19;130748;-38
2023/09/17 10:31:30;;;;;;;175.57;10.35;;;;;;;23.02;58.55;99455.25;7284406;19;129959;-38
2023/09/17 10:33:56;;;;;;;;;;;;;;;23.06;59.41;99448.69;7285941;19;132612;-40
2023/09/17 10:36:22;;;;;;;177.55;10.10;;;;;;;23.05;58.47;99452.31;7283499;19;130285;-37
2023/09/17 10:38:52;;;;;;;230.40;12.93;;;;;;;23.08;58.30;99446.75;7284311;19;130553;-38
2023/09/17 10:41:21;;;;;;;162.63;9.45;;;;;;;23.11;58.03;99454.31;7282563;19;130615;-38
2023/09/17 10:43:48;;;;;;;162.07;9.25;;;;;;;23.05;57.03;99452.31;7284887;19;130518;-38
2023/09/17 10:46:15;;;;;;;193.57;10.88;;;;;;;23.06;57.91;99448.69;7282847;19;131959;-38
2023/09/17 10:48:42;;;;;;;183.93;10.60;;;;;;;23.07;57.55;99455.63;7286845;19;130759;-38
2023/09/17 10:51:08;;;;;;;169.13;9.80;;;;;;;23.08;58.05;99452.00;7283003;19;130506;-38
2023/09/17 10:53:34;;;;;;;180.67;10.07;;;;;;;23.06;58.24;99444.28;7284931;19;131558;-38
2023/09/17 10:56:08;;;;;;;209.40;11.75;;;;;;;22.94;58.69;99424.53;7285461;19;131556;-38
2023/09/17 10:58:38;;;;;;;142.82;8.68;;;;;;;23.09;58.51;99448.38;7286767;19;130896;-38
2023/09/17 11:01:06;;;;;;;190.68;11.25;;;;;;;23.08;58.05;99442.34;7280389;19;130975;-38
2023/09/17 11:03:34;;;;;;;163.98;9.43;;;;;;;23.04;58.10;99446.22;7285110;19;129683;-38
2023/09/17 11:06:04;;;;;;;247.50;13.10;;;;;;;23.01;58.70;99440.47;7282274;19;130104;-38
2023/09/17 11:08:30;;;;;;;186.23;10.27;;;;;;;23.03;57.77;99441.16;7283950;19;130888;-38
2023/09/17 11:10:55;;;;;;;228.10;12.77;;;;;;;23.04;57.19;99434.91;7283474;19;129987;-38